KMNV

Monroe County Airport

Madisonville, Tennessee, USA
METAR KMNV 220955Z AUTO 22005KT 10SM FEW049 BKN120 22/17 A3009 RMK A01
Observed Flight Rules
May-22 @ 09:55 UTC (24 minutes ago) Visual Flight Rules
Wind Visibility Clouds
220° at 5 knots 10 miles
  • Few at 4,900' AGL
  • Broken at 12,000' AGL
Temperatures Readings
Current 22°C / 72°F
Dewpoint 17°C / 63°F
Humidity 73%
Altimeter 30.09" Hg
Pressure 1019 hPa
Elevation 314
METAR KMNV 220955Z AUTO 22005KT 10SM FEW049 BKN120 22/17 A3009 RMK A01
Observed Flight Rules
May-22 @ 09:55 UTC
(24 minutes ago)
VFR
Wind Visibility
220° at 5 knots 10 miles
Clouds
  • Few at 4,900' AGL
  • Broken at 12,000' AGL
Temperature Dewpoint
22°C / 72°F 17°C / 63°F
Humidity Altimeter Pressure
73% 30.09" Hg 1019 hPa